Time;durP1;ratioP1;P1;durP2;ratioP2;P2;SDS_P1;SDS_P2;PMS_P1;PMS_P2;Temp;Humidity;BMP_temperature;BMP_pressure;BME280_temperature;BME280_humidity;BME280_pressure;Samples;Min_cycle;Max_cycle;Signal;HPM_P1;HPM_P2
2022/11/05 00:10:02;;;;;;;;;;;;;;;2.52;81.86;101650.65;1973110;73;20155;-52
2022/11/05 00:18:03;;;;;;;;;;;;;;;2.49;82.14;101642.41;1976831;71;20439;-46
2022/11/05 00:20:31;;;;;;;;;;;;;;;2.49;82.07;101649.31;1988656;72;20195;-45
2022/11/05 00:25:55;;;;;;;;;;;;;;;2.40;82.17;101645.33;1979405;72;20185;-45
2022/11/05 00:28:23;;;;;;;;;;;;;;;2.42;81.88;101649.70;1978356;72;20141;-55
2022/11/05 00:30:51;;;;;;;;;;;;;;;2.44;81.75;101648.42;1969856;73;20112;-56
2022/11/05 00:33:19;;;;;;;;;;;;;;;2.45;81.68;101647.55;1977473;73;20115;-56
2022/11/05 00:35:47;;;;;;;;;;;;;;;2.45;81.47;101652.75;1977063;73;20111;-53
2022/11/05 00:38:15;;;;;;;;;;;;;;;2.43;81.40;101654.47;1973084;73;20933;-56
2022/11/05 00:40:44;;;;;;;;;;;;;;;2.37;81.40;101653.13;1973012;73;20111;-56
2022/11/05 00:45:58;;;;;;;;;;;;;;;2.24;81.56;101659.48;1959490;73;20170;-56
2022/11/05 00:51:12;;;;;;;;;;;;;;;2.17;81.95;101664.17;1958055;72;20112;-48
2022/11/05 00:53:39;;;;;;;;;;;;;;;2.13;81.91;101659.81;1979663;72;20119;-48
2022/11/05 00:56:07;;;;;;;;;;;;;;;2.06;81.77;101654.10;1979501;72;20099;-50
2022/11/05 00:58:35;;;;;;;;;;;;;;;2.01;82.01;101652.77;1979510;72;20115;-52
2022/11/05 01:01:03;;;;;;;;;;;;;;;1.99;82.26;101651.85;1979455;72;20112;-51
2022/11/05 01:03:32;;;;;;;;;;;;;;;1.96;82.39;101655.73;1979617;72;20119;-49
2022/11/05 01:06:08;;;;;;;;;;;;;;;1.96;82.67;101657.47;1979367;72;20138;-49
2022/11/05 01:08:36;;;;;;;;;;;;;;;1.90;82.93;101652.65;1957252;71;20110;-50
2022/11/05 01:11:09;;;;;;;;;;;;;;;1.85;83.06;101656.91;1973070;73;20115;-50
2022/11/05 01:13:37;;;;;;;;;;;;;;;1.83;83.12;101662.52;1973008;73;20132;-51
2022/11/05 01:16:07;;;;;;;;;;;;;;;1.87;83.02;101655.63;1973074;73;20128;-49
2022/11/05 01:18:36;;;;;;;;;;;;;;;1.83;82.95;101666.41;1972089;73;20162;-50
2022/11/05 01:21:12;;;;;;;;;;;;;;;1.78;82.88;101667.21;1961095;72;20144;-50
2022/11/05 01:23:39;;;;;;;;;;;;;;;1.71;83.11;101666.25;1974810;73;20393;-51
2022/11/05 01:26:07;;;;;;;;;;;;;;;1.67;83.06;101673.56;1968738;73;20118;-53
2022/11/05 01:28:35;;;;;;;;;;;;;;;1.69;82.80;101671.86;1950132;72;20107;-51
2022/11/05 01:31:03;;;;;;;;;;;;;;;1.73;82.67;101676.23;1970159;72;20111;-51
2022/11/05 01:33:30;;;;;;;;;;;;;;;1.77;82.53;101670.65;1973008;73;20233;-48
2022/11/05 01:35:58;;;;;;;;;;;;;;;1.79;82.60;101673.73;1976761;72;20151;-47
2022/11/05 01:38:26;;;;;;;;;;;;;;;1.80;82.60;101672.86;1981162;72;20112;-48
2022/11/05 01:40:54;;;;;;;;;;;;;;;1.84;82.35;101677.66;1981137;72;20115;-47
2022/11/05 01:43:23;;;;;;;;;;;;;;;1.81;82.33;101678.91;1979837;72;20115;-46
2022/11/05 01:45:52;;;;;;;;;;;;;;;1.71;82.25;101677.94;1960906;73;20120;-47
2022/11/05 01:48:25;;;;;;;;;;;;;;;1.64;82.54;101689.09;1950324;73;20149;-52
2022/11/05 01:51:00;;;;;;;;;;;;;;;1.57;82.79;101680.77;1941221;74;20366;-48
2022/11/05 01:53:33;;;;;;;;;;;;;;;1.53;82.63;101684.65;1947248;73;20212;-51
2022/11/05 01:56:08;;;;;;;;;;;;;;;1.51;82.83;101682.87;1962140;73;20167;-51
2022/11/05 01:58:37;;;;;;;;;;;;;;;1.44;83.11;101674.15;1963626;73;20115;-51
2022/11/05 02:01:05;;;;;;;;;;;;;;;1.40;83.32;101681.85;1961991;73;20126;-50
2022/11/05 02:03:33;;;;;;;;;;;;;;;1.36;83.44;101680.94;1961604;73;20126;-51
2022/11/05 02:06:02;;;;;;;;;;;;;;;1.31;83.36;101675.70;1961604;73;20138;-48
2022/11/05 02:08:31;;;;;;;;;;;;;;;1.27;83.57;101686.89;1962328;73;20242;-50
2022/11/05 02:10:59;;;;;;;;;;;;;;;1.27;83.46;101688.59;1960321;73;20167;-50
2022/11/05 02:13:27;;;;;;;;;;;;;;;1.27;83.38;101688.59;1963082;73;20147;-47
2022/11/05 02:15:56;;;;;;;;;;;;;;;1.26;83.43;101689.02;1963624;73;20147;-51
2022/11/05 02:18:42;;;;;;;;;;;;;;;1.27;83.63;101687.30;1961886;73;20100;-53
2022/11/05 02:21:11;;;;;;;;;;;;;;;1.29;83.49;101688.19;1963629;73;20104;-53
2022/11/05 02:23:47;;;;;;;;;;;;;;;1.33;83.42;101690.00;1957474;73;20159;-46
2022/11/05 02:26:16;;;;;;;;;;;;;;;1.34;83.75;101696.91;1941591;73;20103;-46
2022/11/05 02:28:46;;;;;;;;;;;;;;;1.31;83.91;101699.05;1951127;73;20112;-49
2022/11/05 02:31:15;;;;;;;;;;;;;;;1.26;83.98;101703.30;1961509;73;20516;-52
2022/11/05 02:33:55;;;;;;;;;;;;;;;1.28;83.92;101703.33;1959730;73;20171;-48
2022/11/05 02:36:33;;;;;;;;;;;;;;;1.30;83.78;101701.19;1959574;73;20109;-48
2022/11/05 02:39:02;;;;;;;;;;;;;;;1.33;83.63;101704.27;1956405;73;20139;-50
2022/11/05 02:41:32;;;;;;;;;;;;;;;1.33;83.60;101712.05;1958391;73;20138;-47
2022/11/05 02:44:01;;;;;;;;;;;;;;;1.27;83.93;101709.34;1958963;72;20152;-47
2022/11/05 02:46:31;;;;;;;;;;;;;;;1.19;83.99;101713.12;1959308;73;20580;-49
2022/11/05 02:49:00;;;;;;;;;;;;;;;1.09;84.08;101714.72;1954391;73;20159;-48
2022/11/05 02:51:42;;;;;;;;;;;;;;;1.05;84.11;101716.83;1955304;73;20117;-51
2022/11/05 02:54:11;;;;;;;;;;;;;;;1.05;83.99;101714.23;1954275;73;20100;-51
2022/11/05 02:56:40;;;;;;;;;;;;;;;1.00;84.10;101721.06;1952515;73;20187;-48
2022/11/05 02:59:08;;;;;;;;;;;;;;;0.96;84.20;101717.97;1937297;73;20114;-49
2022/11/05 03:01:37;;;;;;;;;;;;;;;0.94;84.21;101722.23;1939804;73;20116;-48
2022/11/05 03:04:06;;;;;;;;;;;;;;;0.91;84.30;101719.61;1961064;73;20100;-49
2022/11/05 03:06:42;;;;;;;;;;;;;;;0.90;84.37;101715.27;1957517;73;20104;-50
2022/11/05 03:09:14;;;;;;;;;;;;;;;0.89;84.43;101721.31;1938365;73;20155;-49
2022/11/05 03:11:43;;;;;;;;;;;;;;;0.88;84.47;101729.92;1938984;74;20115;-51
2022/11/05 03:14:19;;;;;;;;;;;;;;;0.84;84.61;101733.32;1938188;73;20194;-50
2022/11/05 03:16:49;;;;;;;;;;;;;;;0.79;84.68;101727.17;1942988;73;20104;-52
2022/11/05 03:19:24;;;;;;;;;;;;;;;0.75;84.70;101729.70;1960400;73;20108;-47
2022/11/05 03:21:53;;;;;;;;;;;;;;;0.75;84.82;101730.14;1960127;73;20179;-50
2022/11/05 03:24:22;;;;;;;;;;;;;;;0.71;85.02;101719.27;1961141;73;20100;-50
2022/11/05 03:26:55;;;;;;;;;;;;;;;0.66;85.17;101732.57;1961021;73;20108;-54
2022/11/05 03:29:24;;;;;;;;;;;;;;;0.65;85.05;101730.41;1960759;73;20116;-53
2022/11/05 03:31:53;;;;;;;;;;;;;;;0.68;84.99;101730.88;1966815;73;20112;-53
2022/11/05 03:34:22;;;;;;;;;;;;;;;0.69;84.92;101737.39;1973795;73;20388;-48
2022/11/05 03:36:51;;;;;;;;;;;;;;;0.67;84.85;101740.38;1968568;72;20150;-52
2022/11/05 03:39:21;;;;;;;;;;;;;;;0.63;84.92;101732.50;1962122;73;20181;-49
2022/11/05 03:41:50;;;;;;;;;;;;;;;0.58;84.99;101736.33;1963636;72;20112;-52
2022/11/05 03:44:19;;;;;;;;;;;;;;;0.55;85.17;101733.27;1948847;72;20103;-45
2022/11/05 03:46:48;;;;;;;;;;;;;;;0.55;85.04;101735.86;1960506;73;20146;-50
2022/11/05 03:49:18;;;;;;;;;;;;;;;0.50;85.15;101741.77;1929481;74;20148;-47
2022/11/05 03:51:47;;;;;;;;;;;;;;;0.44;85.18;101736.48;1929453;74;20118;-48
2022/11/05 03:54:15;;;;;;;;;;;;;;;0.41;85.19;101736.42;1929541;74;20102;-49
2022/11/05 03:56:44;;;;;;;;;;;;;;;0.39;85.14;101741.60;1929538;74;20148;-47
2022/11/05 03:59:12;;;;;;;;;;;;;;;0.42;85.00;101744.66;1953783;73;20108;-49
2022/11/05 04:01:41;;;;;;;;;;;;;;;0.43;84.94;101741.23;1960995;73;20143;-48
2022/11/05 04:04:09;;;;;;;;;;;;;;;0.44;84.93;101748.15;1960984;73;20430;-48
2022/11/05 04:14:56;;;;;;;;;;;;;;;0.51;84.76;101743.11;1963665;73;20120;-49
2022/11/05 04:17:24;;;;;;;;;;;;;;;0.51;84.77;101748.28;1963693;73;20108;-51
2022/11/05 04:25:23;;;;;;;;;;;;;;;0.53;84.89;101759.98;1951010;73;20404;-50
2022/11/05 04:27:51;;;;;;;;;;;;;;;0.59;84.73;101762.71;1938927;74;20108;-51
2022/11/05 04:30:20;;;;;;;;;;;;;;;0.62;84.73;101770.52;1946410;73;20197;-50
2022/11/05 04:32:56;;;;;;;;;;;;;;;0.63;84.66;101767.50;1956376;73;20097;-50
2022/11/05 04:35:23;;;;;;;;;;;;;;;0.61;84.60;101766.20;1956483;73;20139;-50
2022/11/05 04:37:51;;;;;;;;;;;;;;;0.63;84.53;101768.39;1960771;73;20174;-48
2022/11/05 04:40:19;;;;;;;;;;;;;;;0.70;84.47;101762.88;1961071;73;20159;-50
2022/11/05 04:42:47;;;;;;;;;;;;;;;0.73;84.42;101765.53;1963628;73;20112;-49
2022/11/05 04:45:16;;;;;;;;;;;;;;;0.76;84.39;101763.88;1966353;72;20198;-46
2022/11/05 04:47:44;;;;;;;;;;;;;;;0.85;84.24;101770.95;1977469;73;20142;-49
2022/11/05 04:50:12;;;;;;;;;;;;;;;0.93;84.12;101769.34;1977447;73;20111;-45
2022/11/05 04:52:40;;;;;;;;;;;;;;;0.98;84.09;101765.55;1979105;72;20155;-46
2022/11/05 04:55:08;;;;;;;;;;;;;;;1.08;84.02;101763.55;1979445;72;20142;-48
2022/11/05 04:57:36;;;;;;;;;;;;;;;1.26;84.11;101768.16;1979410;72;20138;-51
2022/11/05 05:00:05;;;;;;;;;;;;;;;1.46;83.91;101765.02;1979455;72;20405;-49
2022/11/05 05:02:33;;;;;;;;;;;;;;;1.54;83.55;101772.47;1976782;72;20178;-47
2022/11/05 05:05:01;;;;;;;;;;;;;;;1.48;82.98;101771.96;1976324;73;20099;-49
2022/11/05 05:07:29;;;;;;;;;;;;;;;1.45;82.79;101774.50;1973402;73;20151;-49
2022/11/05 05:09:57;;;;;;;;;;;;;;;1.47;82.72;101774.53;1975786;73;20107;-49
2022/11/05 05:12:24;;;;;;;;;;;;;;;1.49;82.63;101778.87;1976968;72;20112;-48
2022/11/05 05:14:52;;;;;;;;;;;;;;;1.49;82.52;101786.66;1975743;73;20116;-50
2022/11/05 05:17:20;;;;;;;;;;;;;;;1.49;82.50;101781.47;1976121;73;20156;-48
2022/11/05 05:22:34;;;;;;;;;;;;;;;1.65;82.42;101790.80;1971459;73;20404;-47
2022/11/05 05:25:02;;;;;;;;;;;;;;;1.77;82.33;101793.59;1976511;72;20149;-46
2022/11/05 05:27:31;;;;;;;;;;;;;;;1.99;82.12;101800.36;1975891;73;20155;-47
2022/11/05 05:29:59;;;;;;;;;;;;;;;2.30;81.80;101799.02;1973595;73;20104;-48
2022/11/05 05:32:27;;;;;;;;;;;;;;;2.78;80.89;101802.16;1972198;73;20167;-46
2022/11/05 05:34:55;;;;;;;;;;;;;;;3.22;79.97;101799.09;1975546;73;20142;-45
2022/11/05 05:37:23;;;;;;;;;;;;;;;3.54;79.83;101801.06;1973036;73;20145;-45
2022/11/05 05:39:52;;;;;;;;;;;;;;;3.84;79.50;101803.88;1975819;73;20112;-46
2022/11/05 05:42:38;;;;;;;;;;;;;;;4.33;78.75;101799.75;1975565;73;20480;-46
2022/11/05 05:45:06;;;;;;;;;;;;;;;5.06;78.04;101806.89;1974797;72;20202;-48
2022/11/05 05:47:34;;;;;;;;;;;;;;;5.84;76.30;101802.03;1954297;73;20138;-48
2022/11/05 05:50:03;;;;;;;;;;;;;;;6.60;75.58;101791.30;1949716;73;20141;-47
2022/11/05 05:52:31;;;;;;;;;;;;;;;7.33;74.85;101797.31;1946473;73;20159;-46
2022/11/05 05:54:59;;;;;;;;;;;;;;;8.03;73.73;101790.08;1947899;73;20101;-45
2022/11/05 05:57:27;;;;;;;;;;;;;;;8.42;71.55;101798.38;1940797;73;20265;-49
2022/11/05 05:59:55;;;;;;;;;;;;;;;8.88;70.67;101789.39;1948529;73;20133;-46
2022/11/05 06:02:22;;;;;;;;;;;;;;;9.54;70.02;101782.18;1943068;73;20477;-49
2022/11/05 06:04:50;;;;;;;;;;;;;;;10.03;69.17;101789.15;1947404;73;20165;-46
2022/11/05 06:07:18;;;;;;;;;;;;;;;10.70;68.95;101782.05;1951615;73;20113;-48
2022/11/05 06:09:46;;;;;;;;;;;;;;;11.30;68.46;101786.32;1950942;73;20108;-55
2022/11/05 06:12:14;;;;;;;;;;;;;;;11.87;68.23;101784.81;1951801;73;20208;-48
2022/11/05 06:14:42;;;;;;;;;;;;;;;12.43;67.05;101786.75;1941191;73;20230;-46
2022/11/05 06:17:10;;;;;;;;;;;;;;;12.87;66.87;101791.12;1947924;73;20216;-51
2022/11/05 06:19:37;;;;;;;;;;;;;;;13.28;66.28;101787.60;1939584;73;20323;-47
2022/11/05 06:22:05;;;;;;;;;;;;;;;13.58;64.93;101784.84;1950840;73;20142;-53
2022/11/05 06:24:33;;;;;;;;;;;;;;;13.74;62.25;101786.05;1965552;73;20175;-52
2022/11/05 06:27:01;;;;;;;;;;;;;;;14.11;62.20;101788.67;1911890;73;20120;-52
2022/11/05 06:29:29;;;;;;;;;;;;;;;14.69;61.69;101787.39;1908498;75;20104;-49
2022/11/05 06:31:57;;;;;;;;;;;;;;;15.16;61.17;101783.25;1908660;75;20120;-49
2022/11/05 06:34:24;;;;;;;;;;;;;;;15.72;60.70;101785.75;1914184;74;20115;-46
2022/11/05 06:36:52;;;;;;;;;;;;;;;16.14;60.63;101779.01;1925662;74;20123;-50
2022/11/05 06:39:20;;;;;;;;;;;;;;;16.45;59.42;101782.02;1910208;74;20120;-49
2022/11/05 06:41:48;;;;;;;;;;;;;;;16.67;58.79;101779.20;1908789;75;20119;-47
2022/11/05 06:44:16;;;;;;;;;;;;;;;17.15;58.47;101775.09;1908699;75;20116;-47
2022/11/05 06:46:43;;;;;;;;;;;;;;;17.63;57.89;101776.20;1926771;73;20166;-49
2022/11/05 06:49:11;;;;;;;;;;;;;;;18.06;58.44;101779.28;1972971;73;20143;-50
2022/11/05 06:51:39;;;;;;;;;;;;;;;18.64;57.91;101778.33;1973003;73;20147;-53
2022/11/05 06:54:08;;;;;;;;;;;;;;;19.05;57.07;101774.66;1972939;73;20390;-53
2022/11/05 06:56:37;;;;;;;;;;;;;;;19.58;56.62;101771.06;1973101;72;20116;-51
2022/11/05 06:59:07;;;;;;;;;;;;;;;20.07;56.09;101771.23;1976273;73;20138;-52
2022/11/05 07:01:36;;;;;;;;;;;;;;;20.25;55.62;101763.38;1977043;73;20111;-53
2022/11/05 07:04:04;;;;;;;;;;;;;;;20.46;55.11;101763.45;1976953;73;20103;-53
2022/11/05 07:06:32;;;;;;;;;;;;;;;21.09;54.43;101765.52;1977106;73;20174;-52
2022/11/05 07:09:00;;;;;;;;;;;;;;;21.46;54.03;101758.19;1953082;73;20113;-50
2022/11/05 07:11:28;;;;;;;;;;;;;;;21.83;53.47;101757.80;1942572;74;20177;-52
2022/11/05 07:13:55;;;;;;;;;;;;;;;21.95;52.45;101762.30;1942572;74;20114;-50
2022/11/05 07:16:23;;;;;;;;;;;;;;;22.18;52.54;101762.48;1942609;74;20105;-52
2022/11/05 07:18:51;;;;;;;;;;;;;;;22.60;52.09;101757.66;1959933;72;20167;-49
2022/11/05 07:21:19;;;;;;;;;;;;;;;22.57;50.72;101759.22;1973101;73;20115;-53
2022/11/05 07:23:47;;;;;;;;;;;;;;;22.45;50.83;101763.68;1973096;73;20142;-52
2022/11/05 07:26:15;;;;;;;;;;;;;;;21.99;51.67;101760.27;1973347;73;20342;-52
2022/11/05 07:28:43;;;;;;;;;;;;;;;20.53;52.11;101762.09;1972401;73;20104;-51
2022/11/05 07:31:11;;;;;;;;;;;;;;;19.25;53.59;101764.11;1973008;73;20293;-54
2022/11/05 07:33:38;;;;;;;;;;;;;;;19.35;51.64;101764.91;1973060;73;20177;-54
2022/11/05 07:36:06;;;;;;;;;;;;;;;20.07;50.66;101759.20;1974079;73;20115;-53
2022/11/05 07:38:34;;;;;;;;;;;;;;;20.71;49.58;101751.55;1976865;72;20115;-49
2022/11/05 07:41:02;;;;;;;;;;;;;;;21.11;48.72;101748.87;1977475;73;20112;-50
2022/11/05 07:43:30;;;;;;;;;;;;;;;21.55;48.04;101746.34;1977415;73;20115;-49
2022/11/05 07:45:58;;;;;;;;;;;;;;;21.98;46.81;101753.17;1977623;73;20146;-48
2022/11/05 07:48:26;;;;;;;;;;;;;;;22.09;46.45;101752.41;1979670;72;20111;-51
2022/11/05 07:50:54;;;;;;;;;;;;;;;22.18;45.57;101741.86;1981206;72;20115;-51
2022/11/05 07:53:21;;;;;;;;;;;;;;;22.49;45.02;101738.82;1981240;72;20420;-48
2022/11/05 07:55:51;;;;;;;;;;;;;;;22.41;44.05;101746.55;1981533;72;20119;-52
2022/11/05 07:58:19;;;;;;;;;;;;;;;22.65;44.24;101740.73;1980954;72;20100;-52
2022/11/05 08:00:47;;;;;;;;;;;;;;;22.97;43.92;101740.64;1979859;72;20108;-51
2022/11/05 08:03:16;;;;;;;;;;;;;;;23.36;42.89;101739.43;1979867;72;20190;-52
2022/11/05 08:05:46;;;;;;;;;;;;;;;23.47;42.34;101734.07;1956874;72;20355;-47
2022/11/05 08:08:15;;;;;;;;;;;;;;;23.44;41.03;101737.48;1979341;72;20389;-48
2022/11/05 08:10:43;;;;;;;;;;;;;;;23.73;41.44;101733.85;1981437;72;20415;-50
2022/11/05 08:13:11;;;;;;;;;;;;;;;23.77;40.45;101739.84;1980704;72;20251;-50
2022/11/05 08:15:39;;;;;;;;;;;;;;;23.77;40.78;101731.28;1991682;71;20109;-49
2022/11/05 08:18:09;;;;;;;;;;;;;;;24.32;40.11;101729.20;1985047;71;20162;-47
2022/11/05 08:20:37;;;;;;;;;;;;;;;23.83;38.96;101724.13;1980045;72;20108;-47
2022/11/05 08:23:05;;;;;;;;;;;;;;;23.00;39.78;101731.86;1980548;72;20112;-53
2022/11/05 08:25:33;;;;;;;;;;;;;;;21.62;40.95;101730.70;1978196;72;20107;-47
2022/11/05 08:28:02;;;;;;;;;;;;;;;20.47;42.16;101733.05;1979482;72;20206;-48
2022/11/05 08:30:30;;;;;;;;;;;;;;;19.95;42.73;101730.06;1973587;72;20216;-47
2022/11/05 08:32:59;;;;;;;;;;;;;;;19.92;42.46;101730.28;1968877;72;20099;-48
2022/11/05 08:35:27;;;;;;;;;;;;;;;21.21;40.72;101731.23;1979611;72;20116;-48
2022/11/05 08:37:56;;;;;;;;;;;;;;;21.30;39.99;101738.24;1980447;72;20171;-47
2022/11/05 08:40:25;;;;;;;;;;;;;;;21.12;40.21;101740.38;1978787;72;20151;-47
2022/11/05 08:42:54;;;;;;;;;;;;;;;21.49;40.00;101747.27;1978652;72;20289;-48
2022/11/05 08:45:23;;;;;;;;;;;;;;;21.36;40.70;101751.23;1967326;72;20151;-49
2022/11/05 08:47:51;;;;;;;;;;;;;;;20.69;41.29;101761.96;1968780;72;20111;-53
2022/11/05 08:50:19;;;;;;;;;;;;;;;20.19;41.80;101764.23;1962767;72;20218;-49
2022/11/05 08:52:47;;;;;;;;;;;;;;;20.06;42.03;101765.00;1959867;73;20142;-49
2022/11/05 08:55:17;;;;;;;;;;;;;;;19.83;42.19;101761.59;1964518;73;20119;-50
2022/11/05 08:57:47;;;;;;;;;;;;;;;19.84;41.74;101759.28;1953826;72;20164;-48
2022/11/05 09:00:15;;;;;;;;;;;;;;;19.70;42.28;101755.23;1965294;73;20131;-47
2022/11/05 09:02:43;;;;;;;;;;;;;;;18.96;42.64;101745.84;1958120;72;20399;-49
2022/11/05 09:05:11;;;;;;;;;;;;;;;18.27;43.41;101743.06;1958017;73;20119;-50
2022/11/05 09:07:40;;;;;;;;;;;;;;;18.09;43.58;101741.81;1959046;72;20508;-46
2022/11/05 09:10:08;;;;;;;;;;;;;;;18.10;43.52;101748.84;1962641;73;20257;-46
2022/11/05 09:12:36;;;;;;;;;;;;;;;18.70;42.93;101745.95;1959784;73;20146;-45
2022/11/05 09:15:04;;;;;;;;;;;;;;;19.06;42.42;101742.14;1961325;73;20132;-50
2022/11/05 09:17:32;;;;;;;;;;;;;;;18.66;42.98;101751.09;1963477;73;20162;-45
2022/11/05 09:20:02;;;;;;;;;;;;;;;18.13;43.45;101746.02;1955563;73;20215;-45
2022/11/05 09:22:29;;;;;;;;;;;;;;;17.77;44.33;101740.84;1960332;72;20120;-45
2022/11/05 09:24:57;;;;;;;;;;;;;;;17.96;44.57;101736.73;1962134;72;20142;-45
2022/11/05 09:27:25;;;;;;;;;;;;;;;18.19;44.23;101742.63;1962629;73;20136;-46
2022/11/05 09:29:53;;;;;;;;;;;;;;;18.45;44.22;101735.84;1962936;73;20201;-46
2022/11/05 09:32:22;;;;;;;;;;;;;;;18.55;43.88;101745.51;1962884;73;20107;-48
2022/11/05 09:34:49;;;;;;;;;;;;;;;18.97;43.10;101739.53;1961107;73;20148;-47
2022/11/05 09:37:17;;;;;;;;;;;;;;;19.78;41.89;101734.29;1957504;73;20166;-46
2022/11/05 09:39:45;;;;;;;;;;;;;;;20.61;40.54;101737.05;1958798;73;20184;-47
2022/11/05 09:42:15;;;;;;;;;;;;;;;21.68;38.88;101734.77;1960586;73;20131;-47
2022/11/05 09:44:46;;;;;;;;;;;;;;;21.92;37.94;101733.02;1961817;73;20181;-48
2022/11/05 09:47:15;;;;;;;;;;;;;;;22.71;37.27;101733.56;1957058;72;20124;-50
2022/11/05 09:49:46;;;;;;;;;;;;;;;23.25;35.79;101732.69;1960450;72;20187;-48
2022/11/05 09:52:15;;;;;;;;;;;;;;;23.68;35.04;101740.08;1959743;73;20132;-49
2022/11/05 09:54:44;;;;;;;;;;;;;;;23.62;33.81;101733.84;1964524;73;20154;-47
2022/11/05 09:57:14;;;;;;;;;;;;;;;23.72;33.88;101740.23;1963485;73;20178;-48
2022/11/05 09:59:43;;;;;;;;;;;;;;;24.11;34.08;101738.05;1961356;73;20158;-48
2022/11/05 10:02:13;;;;;;;;;;;;;;;24.44;33.91;101733.59;1964464;73;20162;-48
2022/11/05 10:04:42;;;;;;;;;;;;;;;25.04;33.34;101732.14;1965937;73;20140;-50
2022/11/05 10:07:11;;;;;;;;;;;;;;;24.73;32.98;101733.88;1963881;73;20197;-51
2022/11/05 10:09:44;;;;;;;;;;;;;;;24.89;32.86;101737.98;1960653;73;20124;-48
2022/11/05 10:12:14;;;;;;;;;;;;;;;24.03;33.61;101733.76;1963534;73;20103;-46
2022/11/05 10:14:43;;;;;;;;;;;;;;;23.69;34.81;101735.08;1960322;73;20135;-46
2022/11/05 10:17:13;;;;;;;;;;;;;;;23.78;34.52;101735.70;1957159;73;20136;-46
2022/11/05 10:19:45;;;;;;;;;;;;;;;23.71;33.75;101735.81;1962862;73;20136;-49
2022/11/05 10:22:15;;;;;;;;;;;;;;;23.46;34.02;101735.53;1964925;73;20227;-47
2022/11/05 10:24:45;;;;;;;;;;;;;;;23.51;33.73;101743.59;1960070;72;20272;-51
2022/11/05 10:27:15;;;;;;;;;;;;;;;23.69;33.61;101732.39;1973178;72;20205;-48
2022/11/05 10:29:43;;;;;;;;;;;;;;;24.26;33.52;101727.38;1950602;73;20160;-56
2022/11/05 10:32:12;;;;;;;;;;;;;;;24.17;33.79;101728.13;1950775;74;20120;-47
2022/11/05 10:34:41;;;;;;;;;;;;;;;24.05;34.14;101720.56;1950942;73;20112;-49
2022/11/05 10:37:09;;;;;;;;;;;;;;;24.45;34.33;101721.83;1942070;73;20121;-47
2022/11/05 10:39:37;;;;;;;;;;;;;;;24.57;34.23;101718.16;1933681;74;20345;-48
2022/11/05 10:42:23;;;;;;;;;;;;;;;23.57;35.38;101715.88;1933712;74;20156;-48
2022/11/05 10:44:58;;;;;;;;;;;;;;;22.43;36.89;101713.76;1933716;74;20193;-47
2022/11/05 10:47:33;;;;;;;;;;;;;;;21.13;38.03;101715.30;1955015;73;20528;-49
2022/11/05 10:50:02;;;;;;;;;;;;;;;20.00;39.00;101719.10;1967938;72;20194;-47
2022/11/05 10:52:40;;;;;;;;;;;;;;;19.35;39.59;101719.50;1973125;73;20116;-48
2022/11/05 10:55:16;;;;;;;;;;;;;;;18.79;40.06;101717.89;1973176;73;20112;-49
2022/11/05 10:57:44;;;;;;;;;;;;;;;19.18;39.91;101716.07;1974962;72;20119;-48
2022/11/05 11:00:21;;;;;;;;;;;;;;;19.43;39.54;101715.91;1942516;74;20125;-50
2022/11/05 11:02:50;;;;;;;;;;;;;;;19.52;39.52;101722.02;1941282;74;20113;-48
2022/11/05 11:05:19;;;;;;;;;;;;;;;20.04;39.02;101729.48;1942610;74;20152;-52
2022/11/05 11:07:57;;;;;;;;;;;;;;;20.92;38.34;101728.34;1965984;72;20149;-48
2022/11/05 11:10:25;;;;;;;;;;;;;;;21.43;37.60;101723.52;1980813;72;20139;-50
2022/11/05 11:12:55;;;;;;;;;;;;;;;21.47;37.84;101724.59;1975866;72;20194;-52
2022/11/05 11:15:27;;;;;;;;;;;;;;;21.18;38.39;101727.90;1962384;73;20147;-48
2022/11/05 11:17:56;;;;;;;;;;;;;;;20.59;38.73;101725.08;1977459;73;20111;-47
2022/11/05 11:20:25;;;;;;;;;;;;;;;20.06;39.00;101719.55;1977672;73;20383;-47
2022/11/05 11:23:03;;;;;;;;;;;;;;;19.73;38.86;101724.36;1976864;73;20166;-53
2022/11/05 11:25:32;;;;;;;;;;;;;;;19.07;39.79;101722.05;1977463;73;20194;-51
2022/11/05 11:28:04;;;;;;;;;;;;;;;18.09;40.84;101731.15;1977285;73;20142;-51
2022/11/05 11:30:33;;;;;;;;;;;;;;;17.30;41.91;101731.75;1977371;73;20369;-50
2022/11/05 11:33:06;;;;;;;;;;;;;;;17.07;42.56;101730.73;1977457;73;20385;-51
2022/11/05 11:35:35;;;;;;;;;;;;;;;17.20;42.48;101737.63;1977317;73;20115;-50
2022/11/05 11:38:04;;;;;;;;;;;;;;;17.08;42.71;101735.98;1973031;73;20166;-51
2022/11/05 11:40:33;;;;;;;;;;;;;;;16.63;42.94;101742.59;1973086;73;20111;-52
2022/11/05 11:43:03;;;;;;;;;;;;;;;16.07;43.66;101735.05;1972090;73;20149;-52
2022/11/05 11:45:35;;;;;;;;;;;;;;;15.80;44.19;101740.67;1972873;73;20142;-54
2022/11/05 11:48:04;;;;;;;;;;;;;;;15.52;44.71;101737.04;1972910;73;20163;-51
2022/11/05 11:50:36;;;;;;;;;;;;;;;15.40;45.01;101741.10;1959296;73;20120;-50
2022/11/05 11:53:21;;;;;;;;;;;;;;;15.18;45.43;101744.25;1956318;73;20117;-49
2022/11/05 11:55:56;;;;;;;;;;;;;;;14.96;45.88;101742.99;1956301;73;20120;-51
2022/11/05 11:58:25;;;;;;;;;;;;;;;14.76;46.22;101742.48;1956248;73;20147;-49
2022/11/05 12:00:55;;;;;;;;;;;;;;;14.60;46.62;101748.37;1954628;73;20190;-49
2022/11/05 12:03:33;;;;;;;;;;;;;;;14.59;46.82;101752.41;1957859;72;20100;-50
2022/11/05 12:06:05;;;;;;;;;;;;;;;14.54;47.06;101755.22;1947391;72;20111;-49
2022/11/05 12:08:34;;;;;;;;;;;;;;;14.46;47.28;101757.33;1938937;74;20155;-49
2022/11/05 12:11:04;;;;;;;;;;;;;;;14.39;48.10;101765.11;1939081;72;20116;-49
2022/11/05 12:13:42;;;;;;;;;;;;;;;14.19;48.22;101768.05;1938455;73;20124;-48
2022/11/05 12:16:23;;;;;;;;;;;;;;;14.16;48.34;101765.97;1938278;73;20160;-54
2022/11/05 12:19:08;;;;;;;;;;;;;;;13.97;48.81;101771.95;1943552;72;20214;-48
2022/11/05 12:21:55;;;;;;;;;;;;;;;13.59;49.34;101767.57;1956275;72;20222;-47
2022/11/05 12:24:42;;;;;;;;;;;;;;;13.28;50.06;101769.09;1953922;72;20211;-47
2022/11/05 12:27:13;;;;;;;;;;;;;;;13.02;50.62;101772.14;1955909;72;20191;-46
2022/11/05 12:29:43;;;;;;;;;;;;;;;12.78;50.96;101767.62;1945870;72;20136;-56
2022/11/05 12:32:15;;;;;;;;;;;;;;;12.54;51.24;101777.61;1947213;72;20164;-47
2022/11/05 12:34:47;;;;;;;;;;;;;;;12.37;51.56;101783.84;1953234;73;20167;-56
2022/11/05 12:37:22;;;;;;;;;;;;;;;12.22;52.33;101789.13;1953133;73;20175;-56
2022/11/05 12:39:55;;;;;;;;;;;;;;;12.06;52.94;101797.06;1956317;73;20104;-55
2022/11/05 12:42:41;;;;;;;;;;;;;;;11.98;53.22;101794.19;1947214;73;20151;-54
2022/11/05 12:45:11;;;;;;;;;;;;;;;11.92;53.70;101781.17;1950795;73;20145;-54
2022/11/05 12:47:43;;;;;;;;;;;;;;;11.82;54.06;101779.66;1957614;73;20136;-53
2022/11/05 12:50:15;;;;;;;;;;;;;;;11.77;54.66;101780.26;1958125;73;20139;-54
2022/11/05 12:52:50;;;;;;;;;;;;;;;11.70;55.00;101781.33;1975567;73;20159;-48
2022/11/05 12:55:19;;;;;;;;;;;;;;;11.63;55.33;101778.44;1973349;71;20242;-57
2022/11/05 12:57:49;;;;;;;;;;;;;;;11.55;56.04;101779.51;1974338;73;20260;-55
2022/11/05 13:00:18;;;;;;;;;;;;;;;11.51;56.16;101787.09;1975770;72;20096;-58
2022/11/05 13:02:56;;;;;;;;;;;;;;;11.44;56.42;101788.16;1975584;73;20139;-59
2022/11/05 13:05:41;;;;;;;;;;;;;;;11.34;56.75;101785.33;1973130;71;20142;-59
2022/11/05 13:08:10;;;;;;;;;;;;;;;11.30;56.64;101790.27;1974697;71;20112;-56
2022/11/05 13:10:50;;;;;;;;;;;;;;;11.20;56.92;101788.33;1978463;71;20206;-52
2022/11/05 13:13:20;;;;;;;;;;;;;;;11.11;57.33;101789.87;1978022;71;20321;-53
2022/11/05 13:15:49;;;;;;;;;;;;;;;10.96;57.85;101797.70;1976480;71;20250;-53
2022/11/05 13:18:18;;;;;;;;;;;;;;;10.88;58.06;101799.63;1975796;71;20112;-53
2022/11/05 13:20:47;;;;;;;;;;;;;;;10.77;58.80;101803.41;1979580;71;20145;-51
2022/11/05 13:23:24;;;;;;;;;;;;;;;10.64;59.45;101813.77;1971782;71;20134;-53
2022/11/05 13:25:54;;;;;;;;;;;;;;;10.57;59.63;101809.11;1975402;71;20558;-55
2022/11/05 13:28:35;;;;;;;;;;;;;;;10.50;59.63;101811.45;1972489;71;20138;-56
2022/11/05 13:31:05;;;;;;;;;;;;;;;10.45;59.69;101815.95;1975601;72;20284;-56
2022/11/05 13:33:37;;;;;;;;;;;;;;;10.38;59.87;101824.45;1971731;72;20170;-59